FW9399 Weather Reports


time (UTC)temp
F
wind
direction
speed
knots
gust
knots
rain 1hr
in
rain 24hr
in
rain mn
in
humidity
%
barometer
mb
20260506145056 59 0.0 0.0 0.00 0.29 0.06 76 1013.0
20260506144025 58 0.0 0.0 0.00 0.29 0.06 73 1013.1
20260506143054 60 0.0 0.0 0.00 0.29 0.06 71 1013.1
20260506142124 61 0.0 0.0 0.00 0.29 0.06 70 1013.2
20260506141053 61 0.0 0.0 0.01 0.29 0.06 71 1013.1
20260506140042 61 302 0.9 2.6 0.02 0.29 0.06 72 1013.2
20260506135052 60 323 0.0 0.9 0.03 0.29 0.06 72 1013.2
20260506134021 59 339 1.7 3.5 0.03 0.29 0.06 72 1013.2
20260506133050 58 342 0.9 2.6 0.03 0.29 0.06 75 1013.3
20260506132049 57 335 0.9 2.6 0.04 0.29 0.06 77 1013.3
20260506131049 56 317 2.6 4.3 0.03 0.28 0.05 75 1013.5
20260506130048 59 336 1.7 4.3 0.02 0.27 0.04 74 1013.4
20260506125157 60 335 0.9 2.6 0.02 0.26 0.03 75 1013.2
20260506124046 59 325 0.9 2.6 0.02 0.26 0.03 76 1013.4
20260506123046 58 315 0.0 0.9 0.02 0.26 0.03 75 1013.4
20260506122045 58 0.0 0.0 0.01 0.25 0.02 75 1013.5
20260506121314 58 0.0 0.0 0.01 0.25 0.02 76 1013.5
20260506120044 58 0.0 0.0 0.01 0.25 0.02 75 1013.5
20260506115103 58 0.0 0.0 0.00 0.24 0.01 70 1013.5
20260506114112 59 0.0 0.0 0.00 0.24 0.01 68 1013.5
20260506113041 60 0.0 0.0 0.00 0.24 0.01 66 1013.6
20260506112141 60 0.0 0.0 0.00 0.24 0.01 70 1013.6
20260506111110 59 0.0 0.0 0.00 0.24 0.01 69 1013.6
20260506110039 60 0.0 0.0 0.00 0.24 0.01 68 1013.7
20260506105139 61 0.0 0.0 0.00 0.24 0.01 67 1013.8
20260506104038 59 0.0 0.0 0.00 0.24 0.01 72 1013.8
20260506103137 58 0.0 0.0 0.00 0.24 0.01 71 1013.8
20260506102107 58 0.0 0.0 0.00 0.24 0.01 70 1013.8
20260506101036 59 0.0 0.0 0.00 0.24 0.01 72 1013.8
20260506100035 59 0.0 0.0 0.00 0.24 0.01 74 1013.9
20260506095035 59 0.0 0.0 0.00 0.24 0.01 72 1013.8
20260506094034 59 0.0 0.0 0.00 0.24 0.01 73 1013.8
20260506093103 59 0.0 0.0 0.00 0.24 0.01 75 1013.7
20260506092032 58 0.0 0.0 0.00 0.24 0.01 74 1013.7
20260506091102 59 0.0 0.0 0.00 0.24 0.01 73 1013.7
20260506090031 59 0.0 0.0 0.00 0.24 0.01 76 1013.7
20260506085030 57 0.0 0.0 0.00 0.24 0.01 79 1013.7
20260506084130 55 0.0 0.0 0.00 0.24 0.01 82 1013.6
20260506083049 54 0.0 0.0 0.00 0.24 0.01 82 1013.6
20260506082128 54 0.0 0.0 0.00 0.24 0.01 81 1013.7
20260506081057 53 0.0 0.0 0.00 0.24 0.01 81 1013.7
20260506073025 52 0.0 0.0 0.00 0.24 0.01 84 1013.6
20260506072024 52 0.0 0.0 0.00 0.24 0.01 85 1013.7
20260506071143 51 0.0 0.0 0.00 0.24 0.01 87 1013.6
20260506062050 50 0.0 0.0 0.00 0.24 0.01 88 1013.4
20260506061039 50 0.0 0.0 0.00 0.24 0.01 89 1013.4
20260506051045 50 0.0 0.0 0.00 0.24 0.01 88 1012.8
20260506050116 50 0.0 0.0 0.00 0.24 0.01 89 1012.7
20260506044043 50 0.0 0.0 0.00 0.24 0.01 89 1012.7
20260506043142 49 0.0 0.0 0.00 0.24 0.01 89 1012.7
20260506042041 49 0.0 0.0 0.00 0.24 0.01 89 1012.6
20260506041040 49 0.0 0.0 0.00 0.24 0.01 89 1012.6
20260506040130 49 0.0 0.0 0.00 0.24 0.01 89 1012.7
20260506035139 49 0.0 0.0 0.00 0.24 0.01 89 1012.7
20260506034058 49 0.0 0.0 0.00 0.24 0.01 89 1012.7
20260506033308 49 0.0 0.0 0.00 0.24 0.01 89 1012.7
20260506031537 49 0.0 0.0 0.00 0.24 0.01 88 1012.7
20260506030606 49 0.0 0.0 0.00 0.24 0.01 88 1012.7
20260506025535 49 0.0 0.0 0.00 0.24 0.01 88 1012.7
20260506024535 49 0.0 0.0 0.00 0.24 0.01 88 1012.7
20260506023534 49 0.0 0.0 0.00 0.24 0.01 88 1012.6
20260506022603 49 0.0 0.0 0.00 0.24 0.01 88 1012.7
20260506021603 49 315 0.9 0.9 0.00 0.24 0.01 88 1012.6
20260506020532 49 0.0 0.0 0.00 0.24 0.01 89 1012.6
20260506015651 49 315 3.5 7.0 0.00 0.24 0.01 89 1012.7
20260506014601 49 310 3.5 8.7 0.00 0.24 0.01 89 1012.6
20260506013531 49 289 1.7 4.3 0.00 0.24 0.01 88 1012.8
20260506012529 50 315 3.5 4.3 0.00 0.24 0.01 89 1012.7
20260506011558 50 0.0 0.0 0.01 0.24 0.01 88 1012.8
20260506010628 50 0.0 0.0 0.01 0.24 0.01 89 1012.8
20260506005557 50 0.0 0.0 0.01 0.24 0.01 89 1012.9
20260506004547 50 0.0 0.0 0.01 0.24 0.01 89 1013.0
20260506003556 50 0.0 0.0 0.01 0.24 0.01 89 1013.0
20260506002555 51 0.0 0.0 0.01 0.24 0.01 88 1013.1
20260506001555 51 0.0 0.0 0.00 0.23 0.00 89 1013.1
20260506000554 51 267 6.1 8.7 0.00 0.23 0.00 89 1013.2
20260505235523 51 260 4.3 8.7 0.00 0.23 0.00 88 1013.3
20260505234552 51 257 3.5 6.1 0.00 0.23 0.00 88 1013.4
20260505233651 51 266 5.2 9.6 0.00 0.23 0.00 88 1013.3
20260505232551 51 270 5.2 6.1 0.00 0.23 0.00 88 1013.3
20260505231550 51 254 4.3 6.1 0.00 0.23 0.00 88 1013.3
20260505230619 52 248 3.5 6.1 0.00 0.23 0.00 88 1013.4
20260505225549 52 270 5.2 6.1 0.00 0.23 0.00 88 1013.4
20260505224618 52 276 3.5 6.1 0.00 0.23 0.00 88 1013.4
20260505223517 52 0.0 0.0 0.00 0.23 0.00 88 1013.4
20260505222607 52 0.0 0.0 0.00 0.23 0.00 88 1013.5
20260505221615 52 0.0 0.0 0.00 0.24 0.00 87 1013.6
20260505220545 52 0.0 0.0 0.00 0.24 0.00 86 1013.8
20260505215544 52 0.0 0.0 0.00 0.24 0.24 86 1013.9
20260505214604 52 0.0 0.0 0.00 0.24 0.24 85 1013.9
20260505213813 53 0.0 0.0 0.00 0.24 0.24 85 1013.9
20260505212542 52 203 1.7 2.6 0.00 0.24 0.24 85 1014.1
20260505211601 52 180 0.9 2.6 0.00 0.24 0.24 85 1014.2
20260505210611 53 180 0.0 2.6 0.00 0.24 0.24 85 1014.1
20260505205540 53 180 0.0 0.9 0.00 0.24 0.24 85 1014.2
20260505204539 53 180 0.9 0.9 0.00 0.24 0.24 85 1014.1
20260505203539 53 203 0.9 0.9 0.00 0.24 0.24 85 1014.0
20260505202538 52 199 1.7 2.6 0.00 0.24 0.24 85 1014.0
20260505201607 52 203 0.0 0.9 0.00 0.24 0.24 84 1013.8
20260505200607 52 203 0.9 0.9 0.00 0.24 0.24 84 1013.7
20260505195606 52 254 0.0 0.9 0.00 0.25 0.24 84 1013.6
20260505194535 52 270 1.7 3.5 0.00 0.25 0.24 84 1013.5
20260505193534 52 261 1.7 3.5 0.00 0.25 0.24 83 1013.5
20260505192534 53 241 1.7 3.5 0.00 0.25 0.24 83 1013.5
20260505191553 53 0.0 0.0 0.00 0.25 0.24 83 1013.4
20260505190552 54 248 0.9 2.6 0.00 0.26 0.24 82 1013.6
20260505185531 54 243 0.9 2.6 0.00 0.27 0.24 82 1013.6
20260505184531 54 267 0.9 2.6 0.00 0.28 0.24 82 1013.5
20260505183530 54 295 0.0 2.6 0.00 0.30 0.24 82 1013.5
20260505182529 54 45 0.0 0.9 0.00 0.36 0.24 82 1013.4
20260505181528 54 45 0.0 0.9 0.00 0.36 0.24 82 1013.2
20260505180528 53 45 0.0 0.9 0.01 0.36 0.24 82 1013.2
20260505175527 53 348 0.9 3.5 0.01 0.37 0.24 82 1013.3
20260505174616 53 320 0.9 3.5 0.02 0.37 0.24 82 1013.4
20260505173525 53 315 2.6 6.1 0.02 0.37 0.24 83 1013.4
20260505172524 53 309 2.6 7.0 0.03 0.37 0.24 84 1013.4
20260505171524 53 296 4.3 8.7 0.05 0.37 0.24 85 1013.5
20260505170553 53 296 1.7 4.3 0.06 0.38 0.23 85 1013.5
20260505165612 54 307 4.3 8.7 0.08 0.41 0.23 86 1013.4
20260505164522 53 300 5.2 9.6 0.11 0.42 0.22 87 1013.2
20260505163541 53 315 6.1 12.2 0.21 0.43 0.22 87 1013.2
20260505162520 53 307 7.0 15.6 0.20 0.46 0.21 86 1013.2
20260505161550 53 289 7.0 13.0 0.18 0.47 0.19 86 1013.1
20260505160549 53 279 7.0 13.0 0.16 0.45 0.17 85 1013.0
20260505152546 63 0.0 0.0 0.00 0.28 0.01 64 1011.6
20260505151545 63 0.0 0.0 0.00 0.28 0.01 62 1011.4
20260505150614 64 0.0 0.0 0.00 0.28 0.01 61 1011.4